createdAt,value
2023-05-10T00:01:12.316Z,5.60
2023-05-10T00:03:39.716Z,5.45
2023-05-10T00:06:07.190Z,5.25
2023-05-10T00:08:34.412Z,6.32
2023-05-10T00:11:01.952Z,5.93
2023-05-10T00:13:29.349Z,5.75
2023-05-10T00:15:56.734Z,5.50
2023-05-10T00:18:24.034Z,6.10
2023-05-10T00:20:51.442Z,5.88
2023-05-10T00:23:18.732Z,5.82
2023-05-10T00:25:46.089Z,6.43
2023-05-10T00:28:13.358Z,5.80
2023-05-10T00:30:40.738Z,6.40
2023-05-10T00:33:07.997Z,6.55
2023-05-10T00:35:35.316Z,5.70
2023-05-10T00:38:02.580Z,5.90
2023-05-10T00:40:31.458Z,6.65
2023-05-10T00:43:00.367Z,6.40
2023-05-10T00:45:28.100Z,6.05
2023-05-10T00:47:56.991Z,6.18
2023-05-10T00:50:25.516Z,6.00
2023-05-10T00:52:53.301Z,6.78
2023-05-10T00:55:20.848Z,5.95
2023-05-10T00:57:48.982Z,5.97
2023-05-10T01:00:19.664Z,6.53
2023-05-10T01:02:47.776Z,6.07
2023-05-10T01:05:16.169Z,6.40
2023-05-10T01:07:43.536Z,6.03
2023-05-10T01:10:11.947Z,6.00
2023-05-10T01:12:43.209Z,6.03
2023-05-10T01:15:12.045Z,6.45
2023-05-10T01:17:41.342Z,5.93
2023-05-10T01:20:10.409Z,5.95
2023-05-10T01:23:06.999Z,6.20
2023-05-10T01:25:53.083Z,6.45
2023-05-10T01:28:48.359Z,5.88
2023-05-10T01:34:07.051Z,6.57
2023-05-10T01:36:48.734Z,6.38
2023-05-10T01:39:48.671Z,6.43
2023-05-10T01:42:26.008Z,6.20
2023-05-10T01:45:03.362Z,6.35
2023-05-10T01:47:42.296Z,6.05
2023-05-10T01:50:32.017Z,6.03
2023-05-10T01:53:02.519Z,5.65
2023-05-10T01:55:34.838Z,5.80
2023-05-10T01:58:09.660Z,6.05
2023-05-10T02:00:40.886Z,6.18
2023-05-10T02:03:11.416Z,6.25
2023-05-10T02:05:40.428Z,6.68
2023-05-10T02:08:09.113Z,5.60
2023-05-10T02:10:37.270Z,6.60
2023-05-10T02:13:07.323Z,5.93
2023-05-10T02:15:36.149Z,6.00
2023-05-10T02:18:04.963Z,5.90
2023-05-10T02:20:33.585Z,6.00
2023-05-10T02:23:02.922Z,6.60
2023-05-10T02:25:31.307Z,6.60
2023-05-10T02:28:01.135Z,5.88
2023-05-10T02:30:30.026Z,6.55
2023-05-10T02:32:58.303Z,6.32
2023-05-10T02:35:27.116Z,5.80
2023-05-10T02:37:55.367Z,5.47
2023-05-10T02:40:23.966Z,6.03
2023-05-10T02:42:57.358Z,5.93
2023-05-10T02:45:29.132Z,6.07
2023-05-10T02:47:57.727Z,5.82
2023-05-10T02:50:28.860Z,6.18
2023-05-10T02:53:01.784Z,5.82
2023-05-10T02:55:36.430Z,5.40
2023-05-10T02:58:04.682Z,5.88
2023-05-10T03:00:32.097Z,5.43
2023-05-10T03:02:59.678Z,5.95
2023-05-10T03:05:27.074Z,6.32
2023-05-10T03:07:55.126Z,6.18
2023-05-10T03:10:28.501Z,5.88
2023-05-10T03:13:28.310Z,6.07
2023-05-10T03:16:08.932Z,6.20
2023-05-10T03:18:45.508Z,6.35
2023-05-10T03:21:14.482Z,6.03
2023-05-10T03:23:58.566Z,6.47
2023-05-10T03:26:28.174Z,6.32
2023-05-10T03:28:56.483Z,5.97
2023-05-10T03:31:24.601Z,6.28
2023-05-10T03:33:53.496Z,6.60
2023-05-10T03:36:22.004Z,6.75
2023-05-10T03:38:49.317Z,7.00
2023-05-10T03:41:16.635Z,6.95
2023-05-10T03:43:44.017Z,6.63
2023-05-10T03:46:11.499Z,6.30
2023-05-10T03:48:38.937Z,6.45
2023-05-10T03:51:06.395Z,6.60
2023-05-10T03:53:33.690Z,6.85
2023-05-10T03:56:01.108Z,6.80
2023-05-10T03:58:28.385Z,6.50
2023-05-10T04:00:56.262Z,6.70
2023-05-10T04:03:24.142Z,6.65
2023-05-10T04:06:03.180Z,7.05
2023-05-10T04:08:30.989Z,7.18
2023-05-10T04:11:11.731Z,6.78
2023-05-10T04:13:39.446Z,6.13
2023-05-10T04:16:07.087Z,6.35
2023-05-10T04:18:34.528Z,6.88
2023-05-10T04:21:01.855Z,6.80
2023-05-10T04:23:29.589Z,6.78
2023-05-10T04:26:03.324Z,7.07
2023-05-10T04:28:30.754Z,6.22
2023-05-10T04:31:08.671Z,6.35
2023-05-10T04:33:36.675Z,6.07
2023-05-10T04:36:04.737Z,6.22
2023-05-10T04:38:32.209Z,5.75
2023-05-10T04:41:09.771Z,6.20
2023-05-10T04:43:37.512Z,5.95
2023-05-10T04:46:05.920Z,5.90
2023-05-10T04:48:33.310Z,5.90
2023-05-10T04:51:00.779Z,6.40
2023-05-10T04:53:28.341Z,6.20
2023-05-10T04:55:55.703Z,5.68
2023-05-10T04:58:23.009Z,5.45
2023-05-10T05:00:50.342Z,5.97
2023-05-10T05:03:17.706Z,5.57
2023-05-10T05:05:45.880Z,5.47
2023-05-10T05:08:13.805Z,5.45
2023-05-10T05:10:41.300Z,5.57
2023-05-10T05:13:08.576Z,5.32
2023-05-10T05:15:36.016Z,5.40
2023-05-10T05:18:03.561Z,5.43
2023-05-10T05:20:34.662Z,5.40
2023-05-10T05:23:02.359Z,5.15
2023-05-10T05:25:29.681Z,5.55
2023-05-10T05:27:57.051Z,5.18
2023-05-10T05:30:24.369Z,5.18
2023-05-10T05:32:51.767Z,5.45
2023-05-10T05:35:19.628Z,5.40
2023-05-10T05:37:47.095Z,5.00
2023-05-10T05:40:15.184Z,5.45
2023-05-10T05:42:42.498Z,5.20
2023-05-10T05:45:14.131Z,4.80
2023-05-10T05:47:41.835Z,5.30
2023-05-10T05:50:09.562Z,5.47
2023-05-10T05:52:37.217Z,5.07
2023-05-10T05:55:04.943Z,4.82
2023-05-10T05:57:32.370Z,5.05
2023-05-10T06:00:00.303Z,5.55
2023-05-10T06:02:27.655Z,5.22
2023-05-10T06:04:54.949Z,5.47
2023-05-10T06:07:22.586Z,4.85
2023-05-10T06:09:49.891Z,5.15
2023-05-10T06:12:17.137Z,5.15
2023-05-10T06:14:44.411Z,4.85
2023-05-10T06:17:11.931Z,4.60
2023-05-10T06:19:39.530Z,4.78
2023-05-10T06:22:06.862Z,4.93
2023-05-10T06:24:34.139Z,4.65
2023-05-10T06:27:01.510Z,5.05
2023-05-10T06:29:28.831Z,4.70
2023-05-10T06:31:56.146Z,4.20
2023-05-10T06:34:23.417Z,4.65
2023-05-10T06:36:50.725Z,4.57
2023-05-10T06:39:18.082Z,4.57
2023-05-10T06:41:45.343Z,4.25
2023-05-10T06:44:12.973Z,4.53
2023-05-10T06:46:40.401Z,4.63
2023-05-10T06:49:07.785Z,4.47
2023-05-10T06:51:35.034Z,4.25
2023-05-10T06:54:02.874Z,4.38
2023-05-10T06:56:30.141Z,3.78
2023-05-10T06:58:57.410Z,4.30
2023-05-10T07:01:24.770Z,4.10
2023-05-10T07:03:52.113Z,3.60
2023-05-10T07:06:32.221Z,4.07
2023-05-10T07:09:01.372Z,3.53
2023-05-10T07:11:28.766Z,3.92
2023-05-10T07:13:56.080Z,3.88
2023-05-10T07:16:23.505Z,3.40
2023-05-10T07:18:51.730Z,3.70
2023-05-10T07:21:19.002Z,3.63
2023-05-10T07:23:46.337Z,3.92
2023-05-10T07:26:13.662Z,3.45
2023-05-10T07:28:41.406Z,3.67
2023-05-10T07:31:08.755Z,3.63
2023-05-10T07:33:36.292Z,3.53
2023-05-10T07:36:03.626Z,3.95
2023-05-10T07:38:30.828Z,3.63
2023-05-10T07:40:58.116Z,3.55
2023-05-10T07:43:25.472Z,3.22
2023-05-10T07:45:55.446Z,3.40
2023-05-10T07:48:23.522Z,3.45
2023-05-10T07:50:50.818Z,4.03
2023-05-10T07:53:19.583Z,3.90
2023-05-10T07:55:52.750Z,3.85
2023-05-10T07:58:20.090Z,4.03
2023-05-10T08:00:47.441Z,3.42
2023-05-10T08:03:14.875Z,3.38
2023-05-10T08:05:42.341Z,3.70
2023-05-10T08:08:09.806Z,3.85
2023-05-10T08:10:37.067Z,4.20
2023-05-10T08:13:04.339Z,3.95
2023-05-10T08:15:31.652Z,4.10
2023-05-10T08:17:59.037Z,3.88
2023-05-10T08:20:26.418Z,3.55
2023-05-10T08:22:54.312Z,3.97
2023-05-10T08:25:21.582Z,3.70
2023-05-10T08:27:48.920Z,3.90
2023-05-10T08:30:16.303Z,4.07
2023-05-10T08:32:43.684Z,3.70
2023-05-10T08:35:10.985Z,3.20
2023-05-10T08:37:38.330Z,3.65
2023-05-10T08:40:06.062Z,3.22
2023-05-10T08:42:38.657Z,3.33
2023-05-10T08:45:08.163Z,3.03
2023-05-10T08:47:38.973Z,3.15
2023-05-10T08:50:07.531Z,2.83
2023-05-10T08:52:39.629Z,3.00
2023-05-10T08:55:07.285Z,3.20
2023-05-10T08:57:34.792Z,3.38
2023-05-10T09:00:03.495Z,3.15
2023-05-10T09:02:31.175Z,2.97
2023-05-10T09:04:58.557Z,2.90
2023-05-10T09:07:25.950Z,3.00
2023-05-10T09:09:54.995Z,2.55
2023-05-10T09:12:22.313Z,3.08
2023-05-10T09:14:51.476Z,3.20
2023-05-10T09:17:19.014Z,3.10
2023-05-10T09:19:46.986Z,3.05
2023-05-10T09:22:14.375Z,2.90
2023-05-10T09:24:46.139Z,3.10
2023-05-10T09:27:13.447Z,2.95
2023-05-10T09:29:42.979Z,2.78
2023-05-10T09:32:10.316Z,2.90
2023-05-10T09:34:40.930Z,2.58
2023-05-10T09:37:09.222Z,2.70
2023-05-10T09:39:38.566Z,3.10
2023-05-10T09:42:10.705Z,3.08
2023-05-10T09:44:39.132Z,2.67
2023-05-10T09:47:06.491Z,2.70
2023-05-10T09:49:34.314Z,2.70
2023-05-10T09:52:08.903Z,2.50
2023-05-10T09:57:04.484Z,2.72
2023-05-10T09:59:33.957Z,2.40
2023-05-10T10:02:01.989Z,2.60
2023-05-10T10:04:29.778Z,2.50
2023-05-10T10:07:05.206Z,2.15
2023-05-10T10:09:33.679Z,2.22
2023-05-10T10:12:03.014Z,2.50
2023-05-10T10:14:31.541Z,2.17
2023-05-10T10:17:08.439Z,2.60
2023-05-10T10:19:37.594Z,2.17
2023-05-10T10:22:05.818Z,2.13
2023-05-10T10:24:33.693Z,2.55
2023-05-10T10:27:17.516Z,2.40
2023-05-10T10:29:50.944Z,2.40
2023-05-10T10:32:35.793Z,2.25
2023-05-10T10:35:03.357Z,2.00
2023-05-10T10:37:46.227Z,2.10
2023-05-10T10:40:32.809Z,2.25
2023-05-10T10:43:22.655Z,2.17
2023-05-10T10:46:17.073Z,2.13
2023-05-10T10:49:09.096Z,2.10
2023-05-10T10:51:40.155Z,2.20
2023-05-10T10:54:12.071Z,2.00
2023-05-10T10:56:39.634Z,2.00
2023-05-10T10:59:06.982Z,2.03
2023-05-10T11:01:36.214Z,2.00
2023-05-10T11:04:06.711Z,2.10
2023-05-10T11:06:35.870Z,2.17
2023-05-10T11:09:13.529Z,1.80
2023-05-10T11:11:56.311Z,1.98
2023-05-10T11:14:24.295Z,2.25
2023-05-10T11:16:52.049Z,1.83
2023-05-10T11:19:20.589Z,2.20
2023-05-10T11:22:06.207Z,2.10
2023-05-10T11:24:34.521Z,1.88
2023-05-10T11:27:02.094Z,2.25
2023-05-10T11:29:29.431Z,2.75
2023-05-10T11:32:00.153Z,2.30
2023-05-10T11:34:34.678Z,2.10
2023-05-10T11:37:02.367Z,2.20
2023-05-10T11:39:31.591Z,2.22
2023-05-10T11:41:59.740Z,2.10
2023-05-10T11:44:33.932Z,2.00
2023-05-10T11:47:02.612Z,1.95
2023-05-10T11:49:30.185Z,1.92
2023-05-10T11:52:12.057Z,2.22
2023-05-10T11:54:45.849Z,2.17
2023-05-10T11:57:13.180Z,2.38
2023-05-10T11:59:42.465Z,2.60
2023-05-10T12:02:11.175Z,2.00
2023-05-10T12:04:39.081Z,2.17
2023-05-10T12:07:06.761Z,2.05
2023-05-10T12:09:43.274Z,2.28
2023-05-10T12:12:16.654Z,2.08
2023-05-10T12:14:43.960Z,2.10
2023-05-10T12:17:14.467Z,2.00
2023-05-10T12:19:44.768Z,1.90
2023-05-10T12:22:12.082Z,2.38
2023-05-10T12:24:39.805Z,2.30
2023-05-10T12:27:09.475Z,2.25
2023-05-10T12:29:36.959Z,1.77
2023-05-10T12:32:04.304Z,1.60
2023-05-10T12:34:33.993Z,1.70
2023-05-10T12:37:02.158Z,1.98
2023-05-10T12:39:43.964Z,1.77
2023-05-10T12:42:11.868Z,1.70
2023-05-10T12:44:39.723Z,1.80
2023-05-10T12:47:07.263Z,1.88
2023-05-10T12:49:35.088Z,2.00
2023-05-10T12:52:02.567Z,1.70
2023-05-10T12:54:29.890Z,1.45
2023-05-10T12:56:57.236Z,1.50
2023-05-10T12:59:24.550Z,1.60
2023-05-10T13:01:51.986Z,1.55
2023-05-10T13:04:19.256Z,1.60
2023-05-10T13:06:46.682Z,1.52
2023-05-10T13:09:13.946Z,1.73
2023-05-10T13:11:41.596Z,1.65
2023-05-10T13:14:08.873Z,1.52
2023-05-10T13:16:36.223Z,1.70
2023-05-10T13:19:04.042Z,1.70
2023-05-10T13:21:31.451Z,1.80
2023-05-10T13:23:59.075Z,2.03
2023-05-10T13:26:26.576Z,1.70
2023-05-10T13:28:54.048Z,1.50
2023-05-10T13:31:21.668Z,1.67
2023-05-10T13:33:49.025Z,1.58
2023-05-10T13:36:16.382Z,1.63
2023-05-10T13:38:43.636Z,1.70
2023-05-10T13:41:11.527Z,1.73
2023-05-10T13:43:38.760Z,1.73
2023-05-10T13:46:06.119Z,1.80
2023-05-10T13:48:33.472Z,1.60
2023-05-10T13:51:00.765Z,1.90
2023-05-10T13:53:28.012Z,1.88
2023-05-10T13:55:55.404Z,2.20
2023-05-10T13:58:22.690Z,1.80
2023-05-10T14:00:49.976Z,1.70
2023-05-10T14:03:18.094Z,1.70
2023-05-10T14:05:46.409Z,1.80
2023-05-10T14:08:14.215Z,1.80
2023-05-10T14:10:41.521Z,1.70
2023-05-10T14:13:08.936Z,1.63
2023-05-10T14:15:36.197Z,1.67
2023-05-10T14:18:03.593Z,2.00
2023-05-10T14:20:31.116Z,1.75
2023-05-10T14:22:58.393Z,1.80
2023-05-10T14:25:25.810Z,1.80
2023-05-10T14:27:55.578Z,2.15
2023-05-10T14:30:22.884Z,1.75
2023-05-10T14:32:50.232Z,1.98
2023-05-10T14:35:19.420Z,1.83
2023-05-10T14:37:47.211Z,1.88
2023-05-10T14:40:16.074Z,1.98
2023-05-10T14:42:44.521Z,1.88
2023-05-10T14:45:13.049Z,1.65
2023-05-10T14:47:40.447Z,1.80
2023-05-10T14:50:08.133Z,2.10
2023-05-10T14:52:35.911Z,1.80
2023-05-10T14:55:03.364Z,1.90
2023-05-10T14:57:30.754Z,1.95
2023-05-10T14:59:58.144Z,1.92
2023-05-10T15:02:26.180Z,1.90
2023-05-10T15:04:54.037Z,2.00
2023-05-10T15:07:21.912Z,1.80
2023-05-10T15:09:49.385Z,1.85
2023-05-10T15:12:16.646Z,1.90
2023-05-10T15:14:43.965Z,1.95
2023-05-10T15:17:11.472Z,2.00
2023-05-10T15:19:38.755Z,2.03
2023-05-10T15:22:06.513Z,1.48
2023-05-10T15:24:33.796Z,1.88
2023-05-10T15:27:01.705Z,1.90
2023-05-10T15:29:28.974Z,1.95
2023-05-10T15:31:56.843Z,2.08
2023-05-10T15:34:24.169Z,1.80
2023-05-10T15:36:51.398Z,1.80
2023-05-10T15:39:18.668Z,1.77
2023-05-10T15:41:46.109Z,1.83
2023-05-10T15:44:13.504Z,1.70
2023-05-10T15:46:40.962Z,1.83
2023-05-10T15:49:08.253Z,1.88
2023-05-10T15:51:36.782Z,1.70
2023-05-10T15:54:07.513Z,1.65
2023-05-10T15:56:35.814Z,1.63
2023-05-10T15:59:03.764Z,1.70
2023-05-10T16:01:32.659Z,1.60
2023-05-10T16:04:00.506Z,1.90
2023-05-10T16:06:27.949Z,1.50
2023-05-10T16:08:55.277Z,1.83
2023-05-10T16:11:22.713Z,2.00
2023-05-10T16:13:50.084Z,1.85
2023-05-10T16:16:17.475Z,1.88
2023-05-10T16:18:44.933Z,1.83
2023-05-10T16:21:12.627Z,1.90
2023-05-10T16:23:40.306Z,1.58
2023-05-10T16:26:07.619Z,1.77
2023-05-10T16:28:35.229Z,1.70
2023-05-10T16:31:02.554Z,1.60
2023-05-10T16:33:30.098Z,1.70
2023-05-10T16:35:57.424Z,1.75
2023-05-10T16:38:24.823Z,1.45
2023-05-10T16:40:52.038Z,1.80
2023-05-10T16:43:19.351Z,2.20
2023-05-10T16:45:46.566Z,1.58
2023-05-10T16:48:13.907Z,1.75
2023-05-10T16:50:44.516Z,1.48
2023-05-10T16:53:11.850Z,1.83
2023-05-10T16:55:39.159Z,1.77
2023-05-10T16:58:07.010Z,1.90
2023-05-10T17:00:35.062Z,2.00
2023-05-10T17:03:02.481Z,1.70
2023-05-10T17:05:30.468Z,2.00
2023-05-10T17:07:58.138Z,2.30
2023-05-10T17:10:25.477Z,2.17
2023-05-10T17:12:53.642Z,2.20
2023-05-10T17:15:21.219Z,2.00
2023-05-10T17:17:48.677Z,2.15
2023-05-10T17:20:16.558Z,1.83
2023-05-10T17:22:43.853Z,2.20
2023-05-10T17:25:11.298Z,2.10
2023-05-10T17:27:38.614Z,2.10
2023-05-10T17:30:06.760Z,2.17
2023-05-10T17:32:34.106Z,2.30
2023-05-10T17:35:03.697Z,2.28
2023-05-10T17:37:33.030Z,2.17
2023-05-10T17:40:00.854Z,2.00
2023-05-10T17:42:28.124Z,1.77
2023-05-10T17:44:55.575Z,1.60
2023-05-10T17:47:22.997Z,1.80
2023-05-10T17:49:50.487Z,1.80
2023-05-10T17:52:17.760Z,1.70
2023-05-10T17:54:45.141Z,1.65
2023-05-10T17:57:12.429Z,1.70
2023-05-10T17:59:39.651Z,1.65
2023-05-10T18:02:07.546Z,1.77
2023-05-10T18:04:34.951Z,1.60
2023-05-10T18:07:02.915Z,1.75
2023-05-10T18:09:30.368Z,1.35
2023-05-10T18:11:57.651Z,1.80
2023-05-10T18:14:39.001Z,1.40
2023-05-10T18:17:07.941Z,1.90
2023-05-10T18:19:35.500Z,1.40
2023-05-10T18:22:02.878Z,1.63
2023-05-10T18:24:38.875Z,1.73
2023-05-10T18:27:10.294Z,1.40
2023-05-10T18:29:37.795Z,1.40
2023-05-10T18:32:05.534Z,1.52
2023-05-10T18:34:33.035Z,1.50
2023-05-10T18:37:00.460Z,1.50
2023-05-10T18:39:27.815Z,1.60
2023-05-10T18:41:55.186Z,1.65
2023-05-10T18:44:25.894Z,1.48
2023-05-10T18:46:54.268Z,1.40
2023-05-10T18:49:21.630Z,1.63
2023-05-10T18:51:48.898Z,1.40
2023-05-10T18:54:16.281Z,1.83
2023-05-10T18:56:45.290Z,1.60
2023-05-10T18:59:13.026Z,1.63
2023-05-10T19:01:41.754Z,1.63
2023-05-10T19:04:09.255Z,1.58
2023-05-10T19:06:37.035Z,1.70
2023-05-10T19:09:04.647Z,1.63
2023-05-10T19:11:34.077Z,1.73
2023-05-10T19:14:02.320Z,1.80
2023-05-10T19:16:30.457Z,1.60
2023-05-10T19:18:58.062Z,1.70
2023-05-10T19:21:25.841Z,1.60
2023-05-10T19:23:53.605Z,1.70
2023-05-10T19:26:21.812Z,1.60
2023-05-10T19:28:52.073Z,1.67
2023-05-10T19:31:20.341Z,1.27
2023-05-10T19:33:47.615Z,1.60
2023-05-10T19:36:15.044Z,1.42
2023-05-10T19:38:42.465Z,1.40
2023-05-10T19:41:10.158Z,1.42
2023-05-10T19:43:38.522Z,1.60
2023-05-10T19:46:06.420Z,1.50
2023-05-10T19:48:33.794Z,1.23
2023-05-10T19:51:03.117Z,1.52
2023-05-10T19:53:30.657Z,1.45
2023-05-10T19:56:06.499Z,1.20
2023-05-10T19:58:34.436Z,1.35
2023-05-10T20:01:02.120Z,1.40
2023-05-10T20:03:29.682Z,1.48
2023-05-10T20:05:56.984Z,1.13
2023-05-10T20:08:24.678Z,1.60
2023-05-10T20:10:52.022Z,1.40
2023-05-10T20:13:19.338Z,1.25
2023-05-10T20:15:46.835Z,1.30
2023-05-10T20:18:14.141Z,1.60
2023-05-10T20:20:41.507Z,1.40
2023-05-10T20:23:08.816Z,1.50
2023-05-10T20:25:36.300Z,1.50
2023-05-10T20:28:03.818Z,1.70
2023-05-10T20:30:31.196Z,1.45
2023-05-10T20:32:58.578Z,1.48
2023-05-10T20:35:25.880Z,1.75
2023-05-10T20:37:53.313Z,1.63
2023-05-10T20:40:20.571Z,1.50
2023-05-10T20:42:49.595Z,1.85
2023-05-10T20:45:17.011Z,1.70
2023-05-10T20:47:44.348Z,1.80
2023-05-10T20:50:11.960Z,1.70
2023-05-10T20:52:39.246Z,1.85
2023-05-10T20:55:07.142Z,2.10
2023-05-10T20:57:34.401Z,2.05
2023-05-10T21:00:01.826Z,1.80
2023-05-10T21:02:29.210Z,2.20
2023-05-10T21:04:57.938Z,2.47
2023-05-10T21:07:25.666Z,1.98
2023-05-10T21:09:52.959Z,2.55
2023-05-10T21:12:20.403Z,3.35
2023-05-10T21:14:47.836Z,2.55
2023-05-10T21:17:15.128Z,2.63
2023-05-10T21:19:42.508Z,2.83
2023-05-10T21:22:09.840Z,2.70
2023-05-10T21:24:37.111Z,3.10
2023-05-10T21:27:04.731Z,3.20
2023-05-10T21:29:32.044Z,2.88
2023-05-10T21:31:59.446Z,3.13
2023-05-10T21:34:27.208Z,3.05
2023-05-10T21:36:55.161Z,3.33
2023-05-10T21:39:22.400Z,3.10
2023-05-10T21:41:49.725Z,2.90
2023-05-10T21:44:17.002Z,3.15
2023-05-10T21:46:44.273Z,3.67
2023-05-10T21:49:11.582Z,3.17
2023-05-10T21:51:38.881Z,3.08
2023-05-10T21:54:06.220Z,3.28
2023-05-10T21:56:33.449Z,3.80
2023-05-10T21:59:00.771Z,3.42
2023-05-10T22:01:28.187Z,3.35
2023-05-10T22:03:55.553Z,3.42
2023-05-10T22:06:22.815Z,3.63
2023-05-10T22:08:50.103Z,3.35
2023-05-10T22:11:17.398Z,3.40
2023-05-10T22:13:44.680Z,3.70
2023-05-10T22:16:11.954Z,3.70
2023-05-10T22:18:39.232Z,3.40
2023-05-10T22:21:08.849Z,3.92
2023-05-10T22:23:36.306Z,4.15
2023-05-10T22:26:04.117Z,3.70
2023-05-10T22:28:31.465Z,4.00
2023-05-10T22:30:58.786Z,3.75
2023-05-10T22:33:26.135Z,3.50
2023-05-10T22:35:53.602Z,3.85
2023-05-10T22:38:21.486Z,3.50
2023-05-10T22:40:48.797Z,4.20
2023-05-10T22:43:17.847Z,4.00
2023-05-10T22:45:45.135Z,3.65
2023-05-10T22:48:14.314Z,3.67
2023-05-10T22:50:41.767Z,3.88
2023-05-10T22:53:09.325Z,4.00
2023-05-10T22:55:36.958Z,3.70
2023-05-10T22:58:04.228Z,3.55
2023-05-10T23:00:31.513Z,4.10
2023-05-10T23:02:59.169Z,3.70
2023-05-10T23:05:26.897Z,3.75
2023-05-10T23:07:54.460Z,3.75
2023-05-10T23:10:21.958Z,3.97
2023-05-10T23:12:49.285Z,3.95
2023-05-10T23:15:16.736Z,3.80
2023-05-10T23:17:44.103Z,4.20
2023-05-10T23:20:12.268Z,3.88
2023-05-10T23:22:40.072Z,3.88
2023-05-10T23:25:08.012Z,3.90
2023-05-10T23:27:35.324Z,4.22
2023-05-10T23:30:03.110Z,4.15
2023-05-10T23:32:30.362Z,4.00
2023-05-10T23:34:57.748Z,3.55
2023-05-10T23:37:25.016Z,4.15
2023-05-10T23:39:52.502Z,4.10
2023-05-10T23:42:19.836Z,4.25
2023-05-10T23:44:47.262Z,4.10
2023-05-10T23:47:14.601Z,3.92
2023-05-10T23:49:44.950Z,4.30
2023-05-10T23:52:12.495Z,4.20
2023-05-10T23:54:39.784Z,4.18
2023-05-10T23:57:07.014Z,3.90
2023-05-10T23:59:34.273Z,4.35
